sensor_id;sensor_type;location;lat;lon;timestamp;pressure;altitude;pressure_sealevel;temperature;humidity
28310;BME280;15571;50.974;13.936;2022-12-29T00:00:45;99554.25;;;7.71;100.00
28310;BME280;15571;50.974;13.936;2022-12-29T00:03:47;99539.50;;;7.72;100.00
28310;BME280;15571;50.974;13.936;2022-12-29T00:06:48;99549.91;;;7.70;100.00
28310;BME280;15571;50.974;13.936;2022-12-29T00:09:52;99544.69;;;7.75;100.00
28310;BME280;15571;50.974;13.936;2022-12-29T00:12:54;99544.69;;;7.78;100.00
28310;BME280;15571;50.974;13.936;2022-12-29T00:16:16;99555.09;;;7.79;100.00
28310;BME280;15571;50.974;13.936;2022-12-29T00:19:17;99545.53;;;7.80;100.00
28310;BME280;15571;50.974;13.936;2022-12-29T00:22:37;99545.53;;;7.82;100.00
28310;BME280;15571;50.974;13.936;2022-12-29T00:25:58;99535.09;;;7.82;100.00
28310;BME280;15571;50.974;13.936;2022-12-29T00:29:22;99542.91;;;7.86;100.00
28310;BME280;15571;50.974;13.936;2022-12-29T00:32:41;99550.72;;;7.88;100.00
28310;BME280;15571;50.974;13.936;2022-12-29T00:36:01;99563.72;;;7.89;100.00
28310;BME280;15571;50.974;13.936;2022-12-29T00:39:07;99560.25;;;7.90;100.00
28310;BME280;15571;50.974;13.936;2022-12-29T00:42:28;99553.31;;;7.92;100.00
28310;BME280;15571;50.974;13.936;2022-12-29T00:45:51;99556.78;;;7.91;100.00
28310;BME280;15571;50.974;13.936;2022-12-29T00:48:56;99555.88;;;7.94;100.00
28310;BME280;15571;50.974;13.936;2022-12-29T00:52:15;99560.25;;;7.93;100.00
28310;BME280;15571;50.974;13.936;2022-12-29T00:55:19;99547.19;;;7.95;100.00
28310;BME280;15571;50.974;13.936;2022-12-29T00:58:23;99541.09;;;7.98;100.00
28310;BME280;15571;50.974;13.936;2022-12-29T01:01:24;99544.56;;;7.97;100.00
28310;BME280;15571;50.974;13.936;2022-12-29T01:04:26;99534.16;;;8.00;100.00
28310;BME280;15571;50.974;13.936;2022-12-29T01:07:28;99527.19;;;8.02;100.00
28310;BME280;15571;50.974;13.936;2022-12-29T01:10:33;99520.25;;;8.01;100.00
28310;BME280;15571;50.974;13.936;2022-12-29T01:13:36;99512.41;;;8.01;100.00
28310;BME280;15571;50.974;13.936;2022-12-29T01:16:42;99507.22;;;8.01;100.00
28310;BME280;15571;50.974;13.936;2022-12-29T01:19:43;99505.47;;;8.00;100.00
28310;BME280;15571;50.974;13.936;2022-12-29T01:22:45;99498.50;;;8.00;100.00
28310;BME280;15571;50.974;13.936;2022-12-29T01:25:47;99495.91;;;7.99;100.00
28310;BME280;15571;50.974;13.936;2022-12-29T01:28:52;99502.88;;;8.00;100.00
28310;BME280;15571;50.974;13.936;2022-12-29T01:31:56;99506.34;;;8.02;100.00
28310;BME280;15571;50.974;13.936;2022-12-29T01:34:58;99508.94;;;8.00;100.00
28310;BME280;15571;50.974;13.936;2022-12-29T01:38:00;99513.28;;;8.03;100.00
28310;BME280;15571;50.974;13.936;2022-12-29T01:41:02;99510.69;;;8.00;100.00
28310;BME280;15571;50.974;13.936;2022-12-29T01:47:31;99509.81;;;8.01;100.00
28310;BME280;15571;50.974;13.936;2022-12-29T01:50:36;99514.16;;;8.02;100.00
28310;BME280;15571;50.974;13.936;2022-12-29T01:53:40;99511.53;;;8.02;100.00
28310;BME280;15571;50.974;13.936;2022-12-29T01:56:43;99510.66;;;8.01;100.00
28310;BME280;15571;50.974;13.936;2022-12-29T01:59:46;99516.75;;;8.02;100.00
28310;BME280;15571;50.974;13.936;2022-12-29T02:02:52;99508.09;;;8.00;100.00
28310;BME280;15571;50.974;13.936;2022-12-29T02:05:55;99509.81;;;8.01;100.00
28310;BME280;15571;50.974;13.936;2022-12-29T02:08:59;99502.84;;;8.01;100.00
28310;BME280;15571;50.974;13.936;2022-12-29T02:12:02;99495.91;;;8.02;100.00
28310;BME280;15571;50.974;13.936;2022-12-29T02:15:04;99491.56;;;8.01;100.00
28310;BME280;15571;50.974;13.936;2022-12-29T02:18:18;99488.97;;;8.01;100.00
28310;BME280;15571;50.974;13.936;2022-12-29T02:21:30;99481.16;;;8.01;100.00
28310;BME280;15571;50.974;13.936;2022-12-29T02:28:11;99473.31;;;8.01;100.00
28310;BME280;15571;50.974;13.936;2022-12-29T02:31:20;99478.53;;;8.01;100.00
28310;BME280;15571;50.974;13.936;2022-12-29T02:34:30;99468.06;;;8.04;100.00
28310;BME280;15571;50.974;13.936;2022-12-29T02:37:39;99468.06;;;8.04;100.00
28310;BME280;15571;50.974;13.936;2022-12-29T02:40:43;99459.38;;;8.05;100.00
28310;BME280;15571;50.974;13.936;2022-12-29T02:43:49;99463.75;;;8.04;100.00
28310;BME280;15571;50.974;13.936;2022-12-29T02:46:56;99465.47;;;8.04;100.00
28310;BME280;15571;50.974;13.936;2022-12-29T02:50:01;99469.81;;;8.05;100.00
28310;BME280;15571;50.974;13.936;2022-12-29T02:53:05;99475.03;;;8.03;100.00
28310;BME280;15571;50.974;13.936;2022-12-29T02:56:08;99474.16;;;8.04;100.00
28310;BME280;15571;50.974;13.936;2022-12-29T02:59:09;99466.31;;;8.06;100.00
28310;BME280;15571;50.974;13.936;2022-12-29T03:02:21;99471.53;;;8.06;100.00
28310;BME280;15571;50.974;13.936;2022-12-29T03:05:32;99474.16;;;8.07;100.00
28310;BME280;15571;50.974;13.936;2022-12-29T03:08:40;99468.94;;;8.07;100.00
28310;BME280;15571;50.974;13.936;2022-12-29T03:11:50;99457.59;;;8.08;100.00
28310;BME280;15571;50.974;13.936;2022-12-29T03:15:15;99451.53;;;8.08;100.00
28310;BME280;15571;50.974;13.936;2022-12-29T03:18:43;99456.72;;;8.09;100.00
28310;BME280;15571;50.974;13.936;2022-12-29T03:21:47;99458.47;;;8.10;100.00
28310;BME280;15571;50.974;13.936;2022-12-29T03:25:15;99449.78;;;8.12;100.00
28310;BME280;15571;50.974;13.936;2022-12-29T03:28:21;99454.97;;;8.12;100.00
28310;BME280;15571;50.974;13.936;2022-12-29T03:31:24;99458.44;;;8.15;100.00
28310;BME280;15571;50.974;13.936;2022-12-29T03:34:29;99453.22;;;8.17;100.00
28310;BME280;15571;50.974;13.936;2022-12-29T03:37:34;99448.00;;;8.17;100.00
28310;BME280;15571;50.974;13.936;2022-12-29T03:40:38;99448.00;;;8.17;100.00
28310;BME280;15571;50.974;13.936;2022-12-29T03:43:41;99445.41;;;8.17;100.00
28310;BME280;15571;50.974;13.936;2022-12-29T03:46:43;99449.75;;;8.18;100.00
28310;BME280;15571;50.974;13.936;2022-12-29T03:49:50;99434.94;;;8.18;100.00
28310;BME280;15571;50.974;13.936;2022-12-29T03:52:52;99434.94;;;8.18;100.00
28310;BME280;15571;50.974;13.936;2022-12-29T03:55:54;99436.69;;;8.19;100.00
28310;BME280;15571;50.974;13.936;2022-12-29T03:58:56;99443.59;;;8.22;100.00
28310;BME280;15571;50.974;13.936;2022-12-29T04:02:05;99428.88;;;8.19;100.00
28310;BME280;15571;50.974;13.936;2022-12-29T04:05:09;99427.09;;;8.23;100.00
28310;BME280;15571;50.974;13.936;2022-12-29T04:08:11;99427.06;;;8.24;100.00
28310;BME280;15571;50.974;13.936;2022-12-29T04:11:15;99419.25;;;8.24;100.00
28310;BME280;15571;50.974;13.936;2022-12-29T04:14:18;99426.19;;;8.27;100.00
28310;BME280;15571;50.974;13.936;2022-12-29T04:17:21;99407.06;;;8.26;100.00
28310;BME280;15571;50.974;13.936;2022-12-29T04:20:27;99408.78;;;8.31;100.00
28310;BME280;15571;50.974;13.936;2022-12-29T04:23:47;99405.28;;;8.30;100.00
28310;BME280;15571;50.974;13.936;2022-12-29T04:26:51;99408.78;;;8.31;100.00
28310;BME280;15571;50.974;13.936;2022-12-29T04:30:03;99400.06;;;8.32;100.00
28310;BME280;15571;50.974;13.936;2022-12-29T04:33:22;99407.00;;;8.33;100.00
28310;BME280;15571;50.974;13.936;2022-12-29T04:36:25;99414.81;;;8.34;100.00
28310;BME280;15571;50.974;13.936;2022-12-29T04:39:27;99405.25;;;8.35;100.00
28310;BME280;15571;50.974;13.936;2022-12-29T04:42:29;99405.25;;;8.35;100.00
28310;BME280;15571;50.974;13.936;2022-12-29T04:45:31;99413.06;;;8.35;100.00
28310;BME280;15571;50.974;13.936;2022-12-29T04:48:41;99412.19;;;8.36;100.00
28310;BME280;15571;50.974;13.936;2022-12-29T04:52:03;99403.50;;;8.34;100.00
28310;BME280;15571;50.974;13.936;2022-12-29T04:55:05;99399.16;;;8.36;100.00
28310;BME280;15571;50.974;13.936;2022-12-29T04:58:08;99402.63;;;8.35;100.00
28310;BME280;15571;50.974;13.936;2022-12-29T05:01:10;99406.97;;;8.36;100.00
28310;BME280;15571;50.974;13.936;2022-12-29T05:04:12;99412.22;;;8.34;100.00
28310;BME280;15571;50.974;13.936;2022-12-29T05:07:17;99417.44;;;8.34;100.00
28310;BME280;15571;50.974;13.936;2022-12-29T05:10:22;99415.69;;;8.35;100.00
28310;BME280;15571;50.974;13.936;2022-12-29T05:13:27;99411.34;;;8.35;100.00
28310;BME280;15571;50.974;13.936;2022-12-29T05:16:29;99415.69;;;8.35;100.00
28310;BME280;15571;50.974;13.936;2022-12-29T05:19:32;99427.84;;;8.36;100.00
28310;BME280;15571;50.974;13.936;2022-12-29T05:22:35;99424.34;;;8.37;100.00
28310;BME280;15571;50.974;13.936;2022-12-29T05:25:38;99429.56;;;8.37;100.00
28310;BME280;15571;50.974;13.936;2022-12-29T05:28:52;99426.09;;;8.38;100.00
28310;BME280;15571;50.974;13.936;2022-12-29T05:31:54;99425.25;;;8.37;100.00
28310;BME280;15571;50.974;13.936;2022-12-29T05:34:56;99422.59;;;8.39;100.00
28310;BME280;15571;50.974;13.936;2022-12-29T05:38:00;99420.84;;;8.41;100.00
28310;BME280;15571;50.974;13.936;2022-12-29T05:41:02;99420.84;;;8.41;100.00
28310;BME280;15571;50.974;13.936;2022-12-29T05:44:30;99429.50;;;8.43;100.00
28310;BME280;15571;50.974;13.936;2022-12-29T05:47:49;99429.50;;;8.43;100.00
28310;BME280;15571;50.974;13.936;2022-12-29T05:51:09;99439.94;;;8.45;100.00
28310;BME280;15571;50.974;13.936;2022-12-29T05:54:25;99434.72;;;8.43;100.00
28310;BME280;15571;50.974;13.936;2022-12-29T05:57:29;99432.97;;;8.45;100.00
28310;BME280;15571;50.974;13.936;2022-12-29T06:00:42;99431.22;;;8.44;100.00
28310;BME280;15571;50.974;13.936;2022-12-29T06:03:48;99426.03;;;8.44;100.00
28310;BME280;15571;50.974;13.936;2022-12-29T06:06:53;99423.41;;;8.44;100.00
28310;BME280;15571;50.974;13.936;2022-12-29T06:10:09;99428.63;;;8.44;100.00
28310;BME280;15571;50.974;13.936;2022-12-29T06:13:26;99432.09;;;8.43;100.00
28310;BME280;15571;50.974;13.936;2022-12-29T06:16:32;99434.72;;;8.45;100.00
28310;BME280;15571;50.974;13.936;2022-12-29T06:19:36;99444.28;;;8.44;100.00
28310;BME280;15571;50.974;13.936;2022-12-29T06:22:38;99432.97;;;8.45;100.00
28310;BME280;15571;50.974;13.936;2022-12-29T06:25:42;99436.47;;;8.46;100.00
28310;BME280;15571;50.974;13.936;2022-12-29T06:28:46;99439.91;;;8.46;100.00
28310;BME280;15571;50.974;13.936;2022-12-29T06:31:51;99433.84;;;8.49;100.00
28310;BME280;15571;50.974;13.936;2022-12-29T06:34:56;99426.88;;;8.48;100.00
28310;BME280;15571;50.974;13.936;2022-12-29T06:37:58;99434.69;;;8.46;100.00
28310;BME280;15571;50.974;13.936;2022-12-29T06:41:02;99436.47;;;8.47;100.00
28310;BME280;15571;50.974;13.936;2022-12-29T06:44:29;99427.75;;;8.45;100.00
28310;BME280;15571;50.974;13.936;2022-12-29T06:47:35;99429.47;;;8.46;100.00
28310;BME280;15571;50.974;13.936;2022-12-29T06:50:40;99424.28;;;8.43;100.00
28310;BME280;15571;50.974;13.936;2022-12-29T06:53:41;99420.81;;;8.44;100.00
28310;BME280;15571;50.974;13.936;2022-12-29T06:56:45;99413.84;;;8.43;100.00
28310;BME280;15571;50.974;13.936;2022-12-29T06:59:47;99418.19;;;8.44;100.00
28310;BME280;15571;50.974;13.936;2022-12-29T07:02:51;99410.38;;;8.44;100.00
28310;BME280;15571;50.974;13.936;2022-12-29T07:05:53;99416.47;;;8.43;100.00
28310;BME280;15571;50.974;13.936;2022-12-29T07:08:57;99417.38;;;8.42;100.00
28310;BME280;15571;50.974;13.936;2022-12-29T07:12:00;99421.72;;;8.40;100.00
28310;BME280;15571;50.974;13.936;2022-12-29T07:15:02;99427.81;;;8.39;100.00
28310;BME280;15571;50.974;13.936;2022-12-29T07:18:04;99413.91;;;8.37;100.00
28310;BME280;15571;50.974;13.936;2022-12-29T07:21:06;99409.59;;;8.37;100.00
28310;BME280;15571;50.974;13.936;2022-12-29T07:24:08;99397.44;;;8.36;100.00
28310;BME280;15571;50.974;13.936;2022-12-29T07:27:12;99415.69;;;8.35;100.00
28310;BME280;15571;50.974;13.936;2022-12-29T07:30:14;99415.69;;;8.35;100.00
28310;BME280;15571;50.974;13.936;2022-12-29T07:33:16;99427.00;;;8.35;100.00
28310;BME280;15571;50.974;13.936;2022-12-29T07:36:18;99439.16;;;8.35;100.00
28310;BME280;15571;50.974;13.936;2022-12-29T07:39:20;99440.03;;;8.34;100.00
28310;BME280;15571;50.974;13.936;2022-12-29T07:42:24;99441.75;;;8.35;100.00
28310;BME280;15571;50.974;13.936;2022-12-29T07:45:26;99445.19;;;8.38;100.00
28310;BME280;15571;50.974;13.936;2022-12-29T07:48:45;99431.28;;;8.39;100.00
28310;BME280;15571;50.974;13.936;2022-12-29T07:51:47;99433.00;;;8.42;100.00
28310;BME280;15571;50.974;13.936;2022-12-29T07:54:49;99426.03;;;8.44;100.00
28310;BME280;15571;50.974;13.936;2022-12-29T07:57:53;99439.91;;;8.48;100.00
28310;BME280;15571;50.974;13.936;2022-12-29T08:00:57;99443.41;;;8.48;100.00
28310;BME280;15571;50.974;13.936;2022-12-29T08:03:59;99435.56;;;8.50;100.00
28310;BME280;15571;50.974;13.936;2022-12-29T08:07:00;99428.63;;;8.50;100.00
28310;BME280;15571;50.974;13.936;2022-12-29T08:10:03;99432.06;;;8.51;100.00
28310;BME280;15571;50.974;13.936;2022-12-29T08:13:06;99435.53;;;8.53;100.00
28310;BME280;15571;50.974;13.936;2022-12-29T08:16:08;99440.72;;;8.57;100.00
28310;BME280;15571;50.974;13.936;2022-12-29T08:19:10;99448.53;;;8.61;100.00
28310;BME280;15571;50.974;13.936;2022-12-29T08:22:12;99441.53;;;8.64;100.00
28310;BME280;15571;50.974;13.936;2022-12-29T08:25:14;99433.66;;;8.66;100.00
28310;BME280;15571;50.974;13.936;2022-12-29T08:28:20;99442.31;;;8.69;100.00
28310;BME280;15571;50.974;13.936;2022-12-29T08:31:22;99453.59;;;8.73;100.00
28310;BME280;15571;50.974;13.936;2022-12-29T08:34:24;99451.84;;;8.77;100.00
28310;BME280;15571;50.974;13.936;2022-12-29T08:37:26;99461.34;;;8.81;100.00
28310;BME280;15571;50.974;13.936;2022-12-29T08:40:28;99466.53;;;8.82;100.00
28310;BME280;15571;50.974;13.936;2022-12-29T08:43:33;99468.28;;;8.83;100.00
28310;BME280;15571;50.974;13.936;2022-12-29T08:46:37;99465.66;;;8.83;100.00
28310;BME280;15571;50.974;13.936;2022-12-29T08:49:39;99459.56;;;8.84;100.00
28310;BME280;15571;50.974;13.936;2022-12-29T08:52:41;99463.00;;;8.88;100.00
28310;BME280;15571;50.974;13.936;2022-12-29T08:55:44;99469.97;;;8.87;100.00
28310;BME280;15571;50.974;13.936;2022-12-29T08:58:47;99464.75;;;8.87;100.00
28310;BME280;15571;50.974;13.936;2022-12-29T09:01:53;99465.63;;;8.86;100.00
28310;BME280;15571;50.974;13.936;2022-12-29T09:04:56;99458.66;;;8.88;100.00
28310;BME280;15571;50.974;13.936;2022-12-29T09:07:59;99449.09;;;8.87;100.00
28310;BME280;15571;50.974;13.936;2022-12-29T09:11:07;99451.69;;;8.89;100.00
28310;BME280;15571;50.974;13.936;2022-12-29T09:14:11;99453.44;;;8.88;100.00
28310;BME280;15571;50.974;13.936;2022-12-29T09:17:16;99444.75;;;8.86;100.00
28310;BME280;15571;50.974;13.936;2022-12-29T09:20:35;99438.63;;;8.89;100.00
28310;BME280;15571;50.974;13.936;2022-12-29T09:23:37;99443.88;;;8.91;100.00
28310;BME280;15571;50.974;13.936;2022-12-29T09:26:39;99451.69;;;8.91;100.00
28310;BME280;15571;50.974;13.936;2022-12-29T09:29:46;99456.91;;;8.91;100.00
28310;BME280;15571;50.974;13.936;2022-12-29T09:32:49;99439.50;;;8.91;100.00
28310;BME280;15571;50.974;13.936;2022-12-29T09:35:52;99436.03;;;8.91;100.00
28310;BME280;15571;50.974;13.936;2022-12-29T09:38:54;99433.41;;;8.89;100.00
28310;BME280;15571;50.974;13.936;2022-12-29T09:41:59;99433.41;;;8.89;100.00
28310;BME280;15571;50.974;13.936;2022-12-29T09:45:07;99441.25;;;8.91;100.00
28310;BME280;15571;50.974;13.936;2022-12-29T09:48:13;99436.03;;;8.91;100.00
28310;BME280;15571;50.974;13.936;2022-12-29T09:51:17;99439.47;;;8.93;100.00
28310;BME280;15571;50.974;13.936;2022-12-29T09:54:34;99426.41;;;8.94;100.00
28310;BME280;15571;50.974;13.936;2022-12-29T09:57:40;99432.47;;;8.98;100.00
28310;BME280;15571;50.974;13.936;2022-12-29T10:00:47;99436.81;;;8.99;100.00
28310;BME280;15571;50.974;13.936;2022-12-29T10:03:50;99439.41;;;8.99;100.00
28310;BME280;15571;50.974;13.936;2022-12-29T10:06:54;99435.03;;;8.99;100.00
28310;BME280;15571;50.974;13.936;2022-12-29T10:10:00;99438.53;;;9.00;100.00
28310;BME280;15571;50.974;13.936;2022-12-29T10:13:13;99435.91;;;9.00;100.00
28310;BME280;15571;50.974;13.936;2022-12-29T10:16:23;99448.94;;;9.01;100.00
28310;BME280;15571;50.974;13.936;2022-12-29T10:22:52;99432.44;;;9.01;100.00
28310;BME280;15571;50.974;13.936;2022-12-29T10:25:57;99439.34;;;9.02;100.00
28310;BME280;15571;50.974;13.936;2022-12-29T10:29:02;99441.13;;;9.01;100.00
28310;BME280;15571;50.974;13.936;2022-12-29T10:32:09;99431.56;;;9.00;100.00
28310;BME280;15571;50.974;13.936;2022-12-29T10:35:16;99425.47;;;9.00;100.00
28310;BME280;15571;50.974;13.936;2022-12-29T10:38:23;99426.31;;;9.02;100.00
28310;BME280;15571;50.974;13.936;2022-12-29T10:41:28;99428.88;;;9.05;100.00
28310;BME280;15571;50.974;13.936;2022-12-29T10:44:35;99434.09;;;9.05;100.00
28310;BME280;15571;50.974;13.936;2022-12-29T10:47:50;99442.78;;;9.07;100.00
28310;BME280;15571;50.974;13.936;2022-12-29T10:50:53;99431.44;;;9.10;100.00
28310;BME280;15571;50.974;13.936;2022-12-29T10:53:58;99428.78;;;9.14;100.00
28310;BME280;15571;50.974;13.936;2022-12-29T10:57:03;99422.63;;;9.18;100.00
28310;BME280;15571;50.974;13.936;2022-12-29T11:00:09;99419.91;;;9.26;100.00
28310;BME280;15571;50.974;13.936;2022-12-29T11:06:33;99396.25;;;9.39;100.00
28310;BME280;15571;50.974;13.936;2022-12-29T11:09:36;99383.16;;;9.42;100.00
28310;BME280;15571;50.974;13.936;2022-12-29T11:12:38;99387.47;;;9.44;100.00
28310;BME280;15571;50.974;13.936;2022-12-29T11:15:44;99402.22;;;9.48;100.00
28310;BME280;15571;50.974;13.936;2022-12-29T11:18:46;99396.06;;;9.51;100.00
28310;BME280;15571;50.974;13.936;2022-12-29T11:21:49;99400.34;;;9.57;100.00
28310;BME280;15571;50.974;13.936;2022-12-29T11:24:52;99402.91;;;9.61;100.00
28310;BME280;15571;50.974;13.936;2022-12-29T11:27:55;99390.53;;;9.71;100.00
28310;BME280;15571;50.974;13.936;2022-12-29T11:30:58;99387.81;;;9.79;100.00
28310;BME280;15571;50.974;13.936;2022-12-29T11:34:03;99384.22;;;9.88;100.00
28310;BME280;15571;50.974;13.936;2022-12-29T11:37:11;99367.50;;;9.96;100.00
28310;BME280;15571;50.974;13.936;2022-12-29T11:40:15;99373.41;;;10.08;100.00
28310;BME280;15571;50.974;13.936;2022-12-29T11:43:23;99377.72;;;10.10;100.00
28310;BME280;15571;50.974;13.936;2022-12-29T11:46:33;99368.91;;;10.16;100.00
28310;BME280;15571;50.974;13.936;2022-12-29T11:49:36;99373.25;;;10.19;100.00
28310;BME280;15571;50.974;13.936;2022-12-29T11:52:39;99367.94;;;10.22;100.00
28310;BME280;15571;50.974;13.936;2022-12-29T11:55:50;99369.66;;;10.23;100.00
28310;BME280;15571;50.974;13.936;2022-12-29T11:58:52;99368.78;;;10.24;100.00
28310;BME280;15571;50.974;13.936;2022-12-29T12:01:54;99361.78;;;10.24;100.00
28310;BME280;15571;50.974;13.936;2022-12-29T12:04:58;99366.16;;;10.24;100.00
28310;BME280;15571;50.974;13.936;2022-12-29T12:08:11;99357.44;;;10.25;100.00
28310;BME280;15571;50.974;13.936;2022-12-29T12:11:18;99353.06;;;10.24;100.00
28310;BME280;15571;50.974;13.936;2022-12-29T12:14:27;99361.81;;;10.23;100.00
28310;BME280;15571;50.974;13.936;2022-12-29T12:17:53;99356.63;;;10.21;100.00
28310;BME280;15571;50.974;13.936;2022-12-29T12:20:57;99360.13;;;10.20;100.00
28310;BME280;15571;50.974;13.936;2022-12-29T12:24:10;99357.47;;;10.22;100.00
28310;BME280;15571;50.974;13.936;2022-12-29T12:27:19;99349.66;;;10.20;100.00
28310;BME280;15571;50.974;13.936;2022-12-29T12:30:26;99357.47;;;10.22;100.00
28310;BME280;15571;50.974;13.936;2022-12-29T12:33:30;99352.22;;;10.22;100.00
28310;BME280;15571;50.974;13.936;2022-12-29T12:36:44;99353.97;;;10.23;100.00
28310;BME280;15571;50.974;13.936;2022-12-29T12:40:02;99355.69;;;10.24;100.00
28310;BME280;15571;50.974;13.936;2022-12-29T12:43:19;99357.44;;;10.25;100.00
28310;BME280;15571;50.974;13.936;2022-12-29T12:46:33;99353.88;;;10.27;100.00
28310;BME280;15571;50.974;13.936;2022-12-29T12:53:14;99352.94;;;10.32;100.00
28310;BME280;15571;50.974;13.936;2022-12-29T12:59:50;99328.47;;;10.34;100.00
28310;BME280;15571;50.974;13.936;2022-12-29T13:02:59;99326.66;;;10.41;100.00
28310;BME280;15571;50.974;13.936;2022-12-29T13:06:09;99325.66;;;10.47;100.00
28310;BME280;15571;50.974;13.936;2022-12-29T13:09:23;99314.22;;;10.51;100.00
28310;BME280;15571;50.974;13.936;2022-12-29T13:12:32;99316.75;;;10.57;100.00
28310;BME280;15571;50.974;13.936;2022-12-29T13:15:41;99318.44;;;10.59;100.00
28310;BME280;15571;50.974;13.936;2022-12-29T13:18:50;99324.47;;;10.63;100.00
28310;BME280;15571;50.974;13.936;2022-12-29T13:21:58;99321.72;;;10.69;100.00
28310;BME280;15571;50.974;13.936;2022-12-29T13:28:25;99318.00;;;10.80;100.00
28310;BME280;15571;50.974;13.936;2022-12-29T13:31:32;99322.16;;;10.90;100.00
28310;BME280;15571;50.974;13.936;2022-12-29T13:34:38;99323.88;;;10.91;100.00
28310;BME280;15571;50.974;13.936;2022-12-29T13:37:45;99321.22;;;10.94;100.00
28310;BME280;15571;50.974;13.936;2022-12-29T13:40:52;99331.59;;;10.99;100.00
28310;BME280;15571;50.974;13.936;2022-12-29T13:43:59;99326.34;;;10.99;100.00
28310;BME280;15571;50.974;13.936;2022-12-29T13:47:12;99333.31;;;10.98;100.00
28310;BME280;15571;50.974;13.936;2022-12-29T13:50:17;99335.13;;;10.96;100.00
28310;BME280;15571;50.974;13.936;2022-12-29T13:53:23;99333.41;;;10.94;100.00
28310;BME280;15571;50.974;13.936;2022-12-29T13:56:30;99336.97;;;10.91;100.00
28310;BME280;15571;50.974;13.936;2022-12-29T13:59:36;99338.75;;;10.89;100.00
28310;BME280;15571;50.974;13.936;2022-12-29T14:02:46;99340.53;;;10.88;100.00
28310;BME280;15571;50.974;13.936;2022-12-29T14:06:02;99351.03;;;10.87;100.00
28310;BME280;15571;50.974;13.936;2022-12-29T14:09:05;99346.66;;;10.87;100.00
28310;BME280;15571;50.974;13.936;2022-12-29T14:15:24;99349.31;;;10.86;100.00
28310;BME280;15571;50.974;13.936;2022-12-29T14:18:28;99347.63;;;10.82;100.00
28310;BME280;15571;50.974;13.936;2022-12-29T14:21:31;99356.38;;;10.81;100.00
28310;BME280;15571;50.974;13.936;2022-12-29T14:24:43;99353.78;;;10.81;100.00
28310;BME280;15571;50.974;13.936;2022-12-29T14:27:53;99352.94;;;10.79;100.00
28310;BME280;15571;50.974;13.936;2022-12-29T14:30:55;99352.13;;;10.77;100.00
28310;BME280;15571;50.974;13.936;2022-12-29T14:37:23;99352.94;;;10.79;100.00
28310;BME280;15571;50.974;13.936;2022-12-29T14:40:26;99357.34;;;10.77;100.00
28310;BME280;15571;50.974;13.936;2022-12-29T14:43:29;99352.09;;;10.78;100.00
28310;BME280;15571;50.974;13.936;2022-12-29T14:46:42;99359.03;;;10.79;100.00
28310;BME280;15571;50.974;13.936;2022-12-29T14:49:44;99372.16;;;10.78;100.00
28310;BME280;15571;50.974;13.936;2022-12-29T14:52:51;99367.78;;;10.78;100.00
28310;BME280;15571;50.974;13.936;2022-12-29T14:55:54;99373.03;;;10.78;100.00
28310;BME280;15571;50.974;13.936;2022-12-29T14:58:57;99371.34;;;10.76;100.00
28310;BME280;15571;50.974;13.936;2022-12-29T15:02:05;99374.75;;;10.78;100.00
28310;BME280;15571;50.974;13.936;2022-12-29T15:05:24;99374.75;;;10.78;100.00
28310;BME280;15571;50.974;13.936;2022-12-29T15:08:34;99374.81;;;10.76;100.00
28310;BME280;15571;50.974;13.936;2022-12-29T15:11:44;99379.09;;;10.79;100.00
28310;BME280;15571;50.974;13.936;2022-12-29T15:14:51;99373.03;;;10.78;100.00
28310;BME280;15571;50.974;13.936;2022-12-29T15:17:56;99376.47;;;10.80;100.00
28310;BME280;15571;50.974;13.936;2022-12-29T15:21:02;99372.97;;;10.80;100.00
28310;BME280;15571;50.974;13.936;2022-12-29T15:24:09;99372.09;;;10.81;100.00
28310;BME280;15571;50.974;13.936;2022-12-29T15:27:13;99380.00;;;10.79;100.00
28310;BME280;15571;50.974;13.936;2022-12-29T15:30:15;99385.22;;;10.78;100.00
28310;BME280;15571;50.974;13.936;2022-12-29T15:33:18;99382.69;;;10.74;100.00
28310;BME280;15571;50.974;13.936;2022-12-29T15:36:21;99382.72;;;10.73;100.00
28310;BME280;15571;50.974;13.936;2022-12-29T15:39:26;99398.44;;;10.71;100.00
28310;BME280;15571;50.974;13.936;2022-12-29T15:42:32;99400.22;;;10.69;100.00
28310;BME280;15571;50.974;13.936;2022-12-29T15:45:43;99407.28;;;10.67;100.00
28310;BME280;15571;50.974;13.936;2022-12-29T15:48:45;99399.50;;;10.63;100.00
28310;BME280;15571;50.974;13.936;2022-12-29T15:51:48;99408.25;;;10.60;100.00
28310;BME280;15571;50.974;13.936;2022-12-29T15:54:52;99422.22;;;10.59;100.00
28310;BME280;15571;50.974;13.936;2022-12-29T15:57:58;99428.38;;;10.58;100.00
28310;BME280;15571;50.974;13.936;2022-12-29T16:01:01;99446.72;;;10.56;100.00
28310;BME280;15571;50.974;13.936;2022-12-29T16:04:04;99459.84;;;10.55;100.00
28310;BME280;15571;50.974;13.936;2022-12-29T16:07:22;99467.69;;;10.53;100.00
28310;BME280;15571;50.974;13.936;2022-12-29T16:10:27;99466.88;;;10.50;100.00
28310;BME280;15571;50.974;13.936;2022-12-29T16:13:34;99466.06;;;10.46;100.00
28310;BME280;15571;50.974;13.936;2022-12-29T16:16:43;99469.63;;;10.43;100.00
28310;BME280;15571;50.974;13.936;2022-12-29T16:19:49;99461.81;;;10.40;100.00
28310;BME280;15571;50.974;13.936;2022-12-29T16:22:53;99465.31;;;10.39;100.00
28310;BME280;15571;50.974;13.936;2022-12-29T16:26:00;99470.59;;;10.38;100.00
28310;BME280;15571;50.974;13.936;2022-12-29T16:29:04;99470.59;;;10.36;100.00
28310;BME280;15571;50.974;13.936;2022-12-29T16:32:22;99469.78;;;10.33;100.00
28310;BME280;15571;50.974;13.936;2022-12-29T16:35:25;99482.00;;;10.31;100.00
28310;BME280;15571;50.974;13.936;2022-12-29T16:38:31;99484.63;;;10.29;100.00
28310;BME280;15571;50.974;13.936;2022-12-29T16:41:35;99488.16;;;10.28;100.00